createdAt,value
2022-10-23T00:02:38.821Z,14.20
2022-10-23T00:05:24.724Z,13.89
2022-10-23T00:08:10.469Z,13.76
2022-10-23T00:10:56.483Z,13.54
2022-10-23T00:13:42.380Z,13.78
2022-10-23T00:16:30.236Z,13.88
2022-10-23T00:19:15.965Z,14.08
2022-10-23T00:22:01.800Z,13.71
2022-10-23T00:24:47.527Z,14.07
2022-10-23T00:27:33.333Z,14.24
2022-10-23T00:30:19.196Z,14.82
2022-10-23T00:33:05.040Z,15.30
2022-10-23T00:35:50.971Z,15.71
2022-10-23T00:38:36.811Z,16.04
2022-10-23T00:41:22.628Z,16.20
2022-10-23T00:44:08.536Z,16.44
2022-10-23T00:46:54.304Z,16.67
2022-10-23T00:49:42.715Z,17.10
2022-10-23T00:52:29.142Z,17.21
2022-10-23T00:55:14.988Z,17.43
2022-10-23T00:58:00.759Z,16.72
2022-10-23T01:00:48.723Z,15.94
2022-10-23T01:03:34.446Z,16.45
2022-10-23T01:06:20.409Z,16.70
2022-10-23T01:09:06.175Z,16.92
2022-10-23T01:11:51.972Z,17.26
2022-10-23T01:14:37.859Z,16.99
2022-10-23T01:17:23.641Z,15.45
2022-10-23T01:20:09.651Z,15.50
2022-10-23T01:22:55.500Z,15.63
2022-10-23T01:25:41.350Z,15.41
2022-10-23T01:28:27.416Z,14.63
2022-10-23T01:31:13.164Z,14.17
2022-10-23T01:33:59.126Z,13.94
2022-10-23T01:36:45.012Z,13.13
2022-10-23T01:39:30.833Z,13.33
2022-10-23T01:42:16.572Z,14.44
2022-10-23T01:45:02.325Z,15.09
2022-10-23T01:47:48.250Z,15.79
2022-10-23T01:50:34.095Z,16.19
2022-10-23T01:53:19.929Z,16.51
2022-10-23T01:56:05.724Z,16.56
2022-10-23T01:58:51.519Z,16.83
2022-10-23T02:01:37.355Z,16.63
2022-10-23T02:04:23.280Z,17.15
2022-10-23T02:07:09.051Z,17.39
2022-10-23T02:09:54.921Z,17.11
2022-10-23T02:12:40.915Z,17.43
2022-10-23T02:15:26.669Z,17.47
2022-10-23T02:18:12.524Z,17.57
2022-10-23T02:20:58.250Z,17.70
2022-10-23T02:23:43.989Z,17.77
2022-10-23T02:26:29.944Z,17.59
2022-10-23T02:29:15.622Z,17.67
2022-10-23T02:32:01.550Z,17.63
2022-10-23T02:34:47.292Z,17.16
2022-10-23T02:37:32.953Z,16.80
2022-10-23T02:40:18.897Z,15.55
2022-10-23T02:43:04.633Z,15.10
2022-10-23T02:45:50.565Z,15.58
2022-10-23T02:48:36.386Z,16.00
2022-10-23T02:51:22.193Z,16.01
2022-10-23T02:54:08.129Z,15.87
2022-10-23T02:56:53.968Z,15.90
2022-10-23T02:59:39.937Z,16.30
2022-10-23T03:02:26.014Z,16.20
2022-10-23T03:05:11.953Z,16.13
2022-10-23T03:07:57.830Z,16.46
2022-10-23T03:10:43.625Z,15.64
2022-10-23T03:13:29.477Z,15.62
2022-10-23T03:16:15.376Z,16.10
2022-10-23T03:19:01.204Z,15.62
2022-10-23T03:25:09.927Z,13.04
2022-10-23T03:27:55.926Z,14.13
2022-10-23T03:30:41.625Z,12.57
2022-10-23T03:33:27.343Z,14.07
2022-10-23T03:36:13.081Z,12.68
2022-10-23T03:38:58.942Z,12.77
2022-10-23T03:41:44.833Z,13.11
2022-10-23T03:44:30.651Z,12.98
2022-10-23T03:47:16.408Z,13.55
2022-10-23T03:50:02.302Z,13.80
2022-10-23T03:52:48.425Z,13.53
2022-10-23T03:55:34.318Z,13.54
2022-10-23T03:58:20.266Z,13.43
2022-10-23T04:01:06.188Z,13.03
2022-10-23T04:03:52.091Z,11.70
2022-10-23T04:06:37.980Z,11.07
2022-10-23T04:09:23.890Z,11.62
2022-10-23T04:12:09.792Z,11.44
2022-10-23T04:15:15.504Z,11.19
2022-10-23T04:18:01.390Z,12.24
2022-10-23T04:20:47.156Z,12.97
2022-10-23T04:23:32.924Z,12.56
2022-10-23T04:26:18.675Z,11.23
2022-10-23T04:29:04.449Z,10.44
2022-10-23T04:31:50.304Z,10.19
2022-10-23T04:34:36.239Z,10.41
2022-10-23T04:37:22.109Z,11.24
2022-10-23T04:40:07.984Z,12.01
2022-10-23T04:42:53.754Z,12.55
2022-10-23T04:45:39.601Z,12.83
2022-10-23T04:48:28.347Z,12.96
2022-10-23T04:51:15.704Z,13.05
2022-10-23T04:54:03.565Z,12.79
2022-10-23T04:56:49.584Z,13.22
2022-10-23T04:59:35.357Z,12.52
2022-10-23T05:02:21.139Z,11.30
2022-10-23T05:05:06.961Z,11.74
2022-10-23T05:07:52.911Z,11.19
2022-10-23T05:10:38.765Z,11.01
2022-10-23T05:13:24.643Z,11.26
2022-10-23T05:16:10.469Z,11.55
2022-10-23T05:18:56.224Z,10.96
2022-10-23T05:21:41.994Z,10.76
2022-10-23T05:24:27.801Z,10.98
2022-10-23T05:27:13.689Z,11.14
2022-10-23T05:29:59.441Z,11.18
2022-10-23T05:32:45.374Z,11.98
2022-10-23T05:35:31.711Z,12.55
2022-10-23T05:38:17.574Z,12.69
2022-10-23T05:41:03.507Z,13.02
2022-10-23T05:43:49.679Z,13.78
2022-10-23T05:46:35.509Z,13.97
2022-10-23T05:49:21.361Z,14.28
2022-10-23T05:52:07.021Z,14.43
2022-10-23T05:54:52.861Z,14.91
2022-10-23T05:57:38.817Z,15.16
2022-10-23T06:00:24.689Z,15.39
2022-10-23T06:03:10.539Z,15.60
2022-10-23T06:05:56.435Z,15.72
2022-10-23T06:08:42.339Z,15.30
2022-10-23T06:11:28.335Z,15.72
2022-10-23T06:14:14.068Z,15.58
2022-10-23T06:16:59.904Z,15.43
2022-10-23T06:19:45.610Z,15.77
2022-10-23T06:22:31.612Z,16.01
2022-10-23T06:25:17.519Z,15.72
2022-10-23T06:28:03.422Z,14.70
2022-10-23T06:30:49.222Z,14.63
2022-10-23T06:33:35.241Z,14.99
2022-10-23T06:36:21.051Z,15.35
2022-10-23T06:39:08.827Z,15.06
2022-10-23T06:41:54.661Z,15.58
2022-10-23T06:44:40.524Z,15.86
2022-10-23T06:47:26.463Z,15.39
2022-10-23T06:50:15.332Z,14.60
2022-10-23T06:53:01.761Z,14.42
2022-10-23T06:55:50.055Z,13.75
2022-10-23T06:58:40.724Z,13.03
2022-10-23T07:01:26.730Z,13.44
2022-10-23T07:04:12.829Z,13.51
2022-10-23T07:06:58.777Z,14.23
2022-10-23T07:09:44.485Z,14.60
2022-10-23T07:12:30.566Z,14.05
2022-10-23T07:15:18.395Z,13.97
2022-10-23T07:18:06.166Z,13.87
2022-10-23T07:20:51.928Z,14.57
2022-10-23T07:23:37.839Z,14.69
2022-10-23T07:26:23.533Z,15.00
2022-10-23T07:29:09.409Z,15.35
2022-10-23T07:31:55.259Z,15.68
2022-10-23T07:34:41.123Z,15.87
2022-10-23T07:37:26.889Z,16.42
2022-10-23T07:40:12.750Z,16.74
2022-10-23T07:42:58.706Z,16.82
2022-10-23T07:45:44.580Z,17.32
2022-10-23T07:48:30.445Z,17.34
2022-10-23T07:51:16.310Z,16.99
2022-10-23T07:54:02.151Z,17.32
2022-10-23T07:56:47.969Z,17.44
2022-10-23T07:59:37.171Z,17.36
2022-10-23T08:02:24.358Z,17.87
2022-10-23T08:05:10.265Z,17.98
2022-10-23T08:07:56.028Z,17.23
2022-10-23T08:10:41.820Z,16.23
2022-10-23T08:13:27.715Z,15.37
2022-10-23T08:16:13.666Z,15.81
2022-10-23T08:18:59.372Z,15.38
2022-10-23T08:21:45.171Z,14.95
2022-10-23T08:24:30.860Z,14.39
2022-10-23T08:27:18.625Z,14.62
2022-10-23T08:30:04.641Z,15.04
2022-10-23T08:32:50.429Z,15.07
2022-10-23T08:35:36.345Z,15.55
2022-10-23T08:38:22.210Z,16.00
2022-10-23T08:41:07.994Z,16.36
2022-10-23T08:43:53.781Z,16.66
2022-10-23T08:46:39.678Z,16.81
2022-10-23T08:49:25.540Z,17.32
2022-10-23T08:52:13.975Z,16.59
2022-10-23T08:55:00.460Z,17.48
2022-10-23T08:57:46.419Z,17.71
2022-10-23T09:00:32.357Z,18.05
2022-10-23T09:03:18.237Z,17.43
2022-10-23T09:06:04.034Z,16.88
2022-10-23T09:08:49.913Z,16.70
2022-10-23T09:11:35.668Z,16.71
2022-10-23T09:14:21.568Z,16.41
2022-10-23T09:17:07.337Z,15.79
2022-10-23T09:19:53.178Z,16.31
2022-10-23T09:22:39.254Z,16.55
2022-10-23T09:25:25.096Z,16.77
2022-10-23T09:28:10.999Z,17.29
2022-10-23T09:30:56.824Z,17.75
2022-10-23T09:33:42.591Z,18.30
2022-10-23T09:36:28.495Z,18.37
2022-10-23T09:39:14.367Z,18.51
2022-10-23T09:42:00.291Z,18.72
2022-10-23T09:44:46.221Z,19.44
2022-10-23T09:47:32.041Z,19.02
2022-10-23T09:50:18.142Z,18.90
2022-10-23T09:53:04.052Z,18.52
2022-10-23T09:55:49.992Z,18.34
2022-10-23T09:58:35.805Z,18.01
2022-10-23T10:01:21.778Z,17.38
2022-10-23T10:04:09.727Z,17.23
2022-10-23T10:06:55.564Z,16.98
2022-10-23T10:09:41.451Z,17.13
2022-10-23T10:12:27.445Z,17.08
2022-10-23T10:15:13.349Z,17.92
2022-10-23T10:17:59.188Z,18.48
2022-10-23T10:20:44.990Z,18.53
2022-10-23T10:23:30.877Z,18.76
2022-10-23T10:26:16.811Z,19.11
2022-10-23T10:29:02.802Z,18.90
2022-10-23T10:31:53.013Z,18.98
2022-10-23T10:34:39.026Z,19.09
2022-10-23T10:37:24.966Z,19.44
2022-10-23T10:40:10.980Z,19.73
2022-10-23T10:42:58.788Z,19.62
2022-10-23T10:45:44.707Z,19.76
2022-10-23T10:48:30.528Z,19.59
2022-10-23T10:51:16.380Z,19.58
2022-10-23T10:54:02.298Z,19.35
2022-10-23T10:56:48.100Z,19.21
2022-10-23T10:59:33.963Z,18.66
2022-10-23T11:02:20.034Z,18.20
2022-10-23T11:05:05.782Z,19.17
2022-10-23T11:07:51.869Z,18.60
2022-10-23T11:10:39.859Z,19.09
2022-10-23T11:13:25.709Z,19.32
2022-10-23T11:16:11.490Z,19.39
2022-10-23T11:18:57.353Z,18.44
2022-10-23T11:21:43.126Z,18.91
2022-10-23T11:24:28.929Z,19.62
2022-10-23T11:27:14.843Z,18.92
2022-10-23T11:30:00.663Z,18.90
2022-10-23T11:32:46.383Z,19.00
2022-10-23T11:35:32.218Z,18.84
2022-10-23T11:38:18.106Z,19.55
2022-10-23T11:41:03.979Z,19.32
2022-10-23T11:43:49.877Z,19.32
2022-10-23T11:46:35.771Z,19.37
2022-10-23T11:49:21.653Z,19.45
2022-10-23T11:52:07.530Z,19.30
2022-10-23T11:54:53.314Z,19.25
2022-10-23T11:57:39.354Z,19.64
2022-10-23T12:00:25.398Z,19.18
2022-10-23T12:03:11.109Z,19.48
2022-10-23T12:05:57.041Z,19.50
2022-10-23T12:08:42.936Z,20.08
2022-10-23T12:11:28.877Z,19.78
2022-10-23T12:14:14.905Z,19.35
2022-10-23T12:17:00.633Z,19.27
2022-10-23T12:19:46.474Z,19.08
2022-10-23T12:22:32.426Z,19.07
2022-10-23T12:25:18.268Z,19.24
2022-10-23T12:28:04.217Z,18.95
2022-10-23T12:30:50.050Z,18.56
2022-10-23T12:33:35.959Z,18.81
2022-10-23T12:36:21.869Z,18.38
2022-10-23T12:39:07.822Z,18.48
2022-10-23T12:41:53.670Z,18.38
2022-10-23T12:44:39.698Z,18.19
2022-10-23T12:47:25.899Z,18.24
2022-10-23T12:50:11.938Z,18.28
2022-10-23T12:52:57.859Z,18.96
2022-10-23T12:55:45.744Z,18.92
2022-10-23T12:58:31.684Z,18.65
2022-10-23T13:01:17.595Z,18.51
2022-10-23T13:04:03.739Z,18.69
2022-10-23T13:06:49.679Z,18.74
2022-10-23T13:09:35.634Z,18.51
2022-10-23T13:12:21.612Z,18.13
2022-10-23T13:15:07.382Z,17.77
2022-10-23T13:17:53.242Z,18.40
2022-10-23T13:20:39.268Z,18.19
2022-10-23T13:23:25.144Z,18.10
2022-10-23T13:26:10.999Z,17.54
2022-10-23T13:28:56.935Z,17.97
2022-10-23T13:31:42.625Z,17.67
2022-10-23T13:34:28.360Z,17.86
2022-10-23T13:37:14.297Z,17.83
2022-10-23T13:40:00.136Z,17.96
2022-10-23T13:42:46.577Z,18.04
2022-10-23T13:45:32.911Z,18.47
2022-10-23T13:48:18.937Z,18.13
2022-10-23T13:51:04.809Z,18.33
2022-10-23T13:53:50.738Z,18.31
2022-10-23T13:56:38.597Z,18.07
2022-10-23T13:59:24.561Z,18.11
2022-10-23T14:02:10.435Z,18.34
2022-10-23T14:04:56.300Z,18.65
2022-10-23T14:07:42.350Z,18.43
2022-10-23T14:10:28.462Z,18.48
2022-10-23T14:13:14.407Z,18.34
2022-10-23T14:16:00.212Z,18.23
2022-10-23T14:18:46.083Z,18.69
2022-10-23T14:21:32.066Z,18.14
2022-10-23T14:24:17.997Z,18.38
2022-10-23T14:27:03.941Z,18.46
2022-10-23T14:29:49.948Z,18.23
2022-10-23T14:32:35.767Z,18.68
2022-10-23T14:35:21.610Z,18.48
2022-10-23T14:38:07.493Z,18.43
2022-10-23T14:40:53.467Z,18.32
2022-10-23T14:43:39.443Z,17.79
2022-10-23T14:46:25.157Z,18.08
2022-10-23T14:49:11.242Z,18.24
2022-10-23T14:51:57.038Z,17.98
2022-10-23T14:54:43.061Z,18.29
2022-10-23T14:57:29.028Z,18.67
2022-10-23T15:00:14.947Z,18.18
2022-10-23T15:03:00.807Z,18.34
2022-10-23T15:05:46.866Z,18.27
2022-10-23T15:08:32.690Z,18.30
2022-10-23T15:11:18.578Z,18.60
2022-10-23T15:14:04.357Z,18.45
2022-10-23T15:16:50.425Z,18.48
2022-10-23T15:19:36.392Z,18.60
2022-10-23T15:22:22.277Z,18.60
2022-10-23T15:25:08.231Z,18.47
2022-10-23T15:27:54.061Z,18.11
2022-10-23T15:30:39.966Z,17.81
2022-10-23T15:33:25.923Z,18.14
2022-10-23T15:36:11.798Z,18.01
2022-10-23T15:38:57.781Z,18.12
2022-10-23T15:41:43.594Z,18.12
2022-10-23T15:44:29.575Z,18.13
2022-10-23T15:47:15.490Z,18.20
2022-10-23T15:50:01.347Z,18.52
2022-10-23T15:52:47.383Z,18.13
2022-10-23T15:55:33.286Z,17.90
2022-10-23T15:58:19.004Z,17.72
2022-10-23T16:01:04.912Z,17.67
2022-10-23T16:03:50.810Z,17.46
2022-10-23T16:06:36.632Z,17.20
2022-10-23T16:09:22.548Z,17.54
2022-10-23T16:12:08.246Z,17.32
2022-10-23T16:14:54.184Z,17.30
2022-10-23T16:17:40.274Z,17.79
2022-10-23T16:20:26.209Z,17.50
2022-10-23T16:23:12.006Z,17.95
2022-10-23T16:25:57.916Z,17.54
2022-10-23T16:28:43.912Z,17.67
2022-10-23T16:31:29.894Z,17.33
2022-10-23T16:34:15.703Z,17.43
2022-10-23T16:37:01.489Z,17.24
2022-10-23T16:39:47.431Z,17.20
2022-10-23T16:42:33.226Z,17.66
2022-10-23T16:45:19.163Z,17.56
2022-10-23T16:48:04.945Z,17.13
2022-10-23T16:50:50.922Z,16.89
2022-10-23T16:53:37.001Z,17.12
2022-10-23T16:56:22.844Z,16.83
2022-10-23T16:59:08.682Z,16.93
2022-10-23T17:01:54.603Z,16.78
2022-10-23T17:04:42.940Z,17.10
2022-10-23T17:07:28.887Z,17.24
2022-10-23T17:10:14.703Z,17.22
2022-10-23T17:13:00.648Z,17.17
2022-10-23T17:15:46.664Z,17.21
2022-10-23T17:18:32.475Z,17.25
2022-10-23T17:21:18.331Z,17.27
2022-10-23T17:24:04.245Z,17.29
2022-10-23T17:26:50.117Z,17.86
2022-10-23T17:29:36.092Z,17.64
2022-10-23T17:35:12.636Z,17.02
2022-10-23T17:38:00.491Z,16.81
2022-10-23T17:43:37.081Z,16.70
2022-10-23T17:46:22.773Z,16.37
2022-10-23T17:49:08.572Z,15.99
2022-10-23T17:51:54.382Z,16.04
2022-10-23T17:54:40.357Z,15.93
2022-10-23T17:57:26.224Z,15.98
2022-10-23T18:00:12.005Z,15.66
2022-10-23T18:02:57.817Z,15.55
2022-10-23T18:05:43.832Z,15.54
2022-10-23T18:08:29.647Z,15.61
2022-10-23T18:11:15.598Z,15.54
2022-10-23T18:14:01.505Z,15.67
2022-10-23T18:16:47.399Z,15.61
2022-10-23T18:19:33.497Z,15.44
2022-10-23T18:25:10.225Z,15.58
2022-10-23T18:28:00.313Z,15.60
2022-10-23T18:30:48.708Z,15.44
2022-10-23T18:33:35.585Z,15.00
2022-10-23T18:36:21.257Z,15.06
2022-10-23T18:39:07.214Z,15.20
2022-10-23T18:41:53.087Z,15.19
2022-10-23T18:44:40.992Z,14.97
2022-10-23T18:47:26.905Z,15.18
2022-10-23T18:50:12.679Z,15.11
2022-10-23T18:52:58.633Z,15.22
2022-10-23T18:55:44.557Z,15.11
2022-10-23T18:58:30.380Z,15.50
2022-10-23T19:01:18.359Z,15.20
2022-10-23T19:04:04.534Z,15.28
2022-10-23T19:06:50.352Z,15.43
2022-10-23T19:09:36.287Z,15.28
2022-10-23T19:12:22.122Z,15.34
2022-10-23T19:15:08.049Z,15.33
2022-10-23T19:17:53.940Z,15.09
2022-10-23T19:20:39.681Z,15.19
2022-10-23T19:23:25.521Z,15.06
2022-10-23T19:26:13.486Z,15.10
2022-10-23T19:28:59.162Z,15.08
2022-10-23T19:31:45.026Z,15.29
2022-10-23T19:34:30.777Z,15.14
2022-10-23T19:37:16.567Z,15.35
2022-10-23T19:40:02.611Z,15.18
2022-10-23T19:42:50.495Z,15.17
2022-10-23T19:45:36.504Z,14.83
2022-10-23T19:48:24.469Z,15.37
2022-10-23T19:51:10.329Z,15.43
2022-10-23T19:53:56.134Z,15.76
2022-10-23T19:56:41.958Z,16.24
2022-10-23T19:59:27.783Z,16.24
2022-10-23T20:02:14.025Z,16.38
2022-10-23T20:05:00.320Z,16.07
2022-10-23T20:07:46.426Z,15.40
2022-10-23T20:10:32.659Z,15.77
2022-10-23T20:13:20.190Z,16.29
2022-10-23T20:16:06.441Z,16.12
2022-10-23T20:18:52.315Z,16.48
2022-10-23T20:21:38.257Z,15.87
2022-10-23T20:24:24.113Z,15.61
2022-10-23T20:27:09.969Z,15.45
2022-10-23T20:29:55.801Z,15.67
2022-10-23T20:32:41.970Z,15.97
2022-10-23T20:35:28.135Z,15.84
2022-10-23T20:38:13.916Z,16.02
2022-10-23T20:40:59.765Z,15.90
2022-10-23T20:43:45.598Z,15.88
2022-10-23T20:46:31.471Z,16.19
2022-10-23T20:49:17.347Z,16.39
2022-10-23T20:52:03.262Z,16.75
2022-10-23T20:54:49.191Z,16.87
2022-10-23T20:57:35.026Z,16.59
2022-10-23T21:00:20.853Z,16.38
2022-10-23T21:03:06.701Z,15.83
2022-10-23T21:05:52.540Z,16.08
2022-10-23T21:08:38.395Z,16.67
2022-10-23T21:11:26.215Z,16.83
2022-10-23T21:14:12.079Z,17.09
2022-10-23T21:16:57.943Z,17.67
2022-10-23T21:19:43.790Z,17.61
2022-10-23T21:22:29.626Z,17.75
2022-10-23T21:25:15.547Z,18.20
2022-10-23T21:28:01.424Z,18.36
2022-10-23T21:30:47.273Z,18.25
2022-10-23T21:33:33.299Z,18.39
2022-10-23T21:36:19.127Z,18.65
2022-10-23T21:39:05.096Z,18.41
2022-10-23T21:41:50.836Z,18.61
2022-10-23T21:44:36.747Z,18.83
2022-10-23T21:47:24.683Z,18.86
2022-10-23T21:50:10.462Z,18.67
2022-10-23T21:52:56.332Z,19.04
2022-10-23T21:55:42.285Z,18.54
2022-10-23T21:58:28.081Z,18.42
2022-10-23T22:01:13.988Z,16.84
2022-10-23T22:03:59.920Z,16.27
2022-10-23T22:06:45.764Z,16.21
2022-10-23T22:09:31.759Z,15.68
2022-10-23T22:12:17.578Z,15.38
2022-10-23T22:15:03.504Z,15.53
2022-10-23T22:17:49.470Z,15.42
2022-10-23T22:20:35.226Z,15.59
2022-10-23T22:23:21.007Z,16.05
2022-10-23T22:26:06.912Z,16.60
2022-10-23T22:28:52.733Z,16.14
2022-10-23T22:31:38.631Z,16.28
2022-10-23T22:34:47.945Z,15.80
2022-10-23T22:37:30.423Z,15.53
2022-10-23T22:40:16.286Z,15.43
2022-10-23T22:43:02.198Z,15.38
2022-10-23T22:45:47.979Z,15.02
2022-10-23T22:48:33.840Z,14.71
2022-10-23T22:51:19.624Z,14.63
2022-10-23T22:54:05.589Z,14.53
2022-10-23T22:56:52.496Z,14.17
2022-10-23T22:59:38.314Z,14.11
2022-10-23T23:02:24.730Z,13.77
2022-10-23T23:05:10.700Z,13.73
2022-10-23T23:07:56.423Z,13.42
2022-10-23T23:10:42.272Z,13.38
2022-10-23T23:13:28.090Z,13.39
2022-10-23T23:16:13.868Z,13.57
2022-10-23T23:18:59.807Z,13.23
2022-10-23T23:21:45.530Z,13.52
2022-10-23T23:24:31.286Z,13.60
2022-10-23T23:27:17.081Z,13.61
2022-10-23T23:30:03.018Z,13.42
2022-10-23T23:32:48.947Z,13.51
2022-10-23T23:35:34.742Z,13.46
2022-10-23T23:38:20.677Z,13.58
2022-10-23T23:41:06.643Z,13.68
2022-10-23T23:43:52.436Z,13.46
2022-10-23T23:46:38.392Z,13.37
2022-10-23T23:49:24.209Z,13.12
2022-10-23T23:52:10.047Z,13.41
2022-10-23T23:54:55.961Z,13.43
2022-10-23T23:57:42.005Z,13.65
